Time;durP1;ratioP1;P1;durP2;ratioP2;P2;SDS_P1;SDS_P2;PMS_P1;PMS_P2;Temp;Humidity;BMP_temperature;BMP_pressure;BME280_temperature;BME280_humidity;BME280_pressure;Samples;Min_cycle;Max_cycle;Signal;HPM_P1;HPM_P2
2022/06/21 00:01:24;;;;;;;0.50;0.30;;;;;;;19.22;100.00;94969.44;5133177;28;20434;-61
2022/06/21 00:03:54;;;;;;;0.40;0.30;;;;;;;18.79;100.00;94975.22;5132689;27;20470;-61
2022/06/21 00:06:26;;;;;;;0.40;0.20;;;;;;;18.49;100.00;95001.34;5132644;28;20992;-61
2022/06/21 00:08:54;;;;;;;0.50;0.33;;;;;;;17.32;100.00;94866.44;5132687;27;20820;-62
2022/06/21 00:11:27;;;;;;;0.50;0.40;;;;;;;18.34;100.00;95001.88;5132545;27;20991;-61
2022/06/21 00:13:57;;;;;;;0.50;0.30;;;;;;;18.53;100.00;94991.50;5132451;28;20473;-61
2022/06/21 00:16:36;;;;;;;0.40;0.30;;;;;;;18.52;100.00;94952.34;5132499;27;20970;-61
2022/06/21 00:19:07;;;;;;;0.40;0.30;;;;;;;18.01;100.00;94947.31;5132466;28;20915;-61
2022/06/21 00:21:38;;;;;;;0.50;0.40;;;;;;;18.55;100.00;95021.50;5132556;28;20608;-61
2022/06/21 00:24:08;;;;;;;0.50;0.30;;;;;;;18.32;100.00;94963.84;5132446;28;20462;-61
2022/06/21 00:26:36;;;;;;;0.40;0.30;;;;;;;18.68;100.00;95004.34;5132485;28;20549;-61
2022/06/21 00:29:06;;;;;;;0.77;0.77;;;;;;;18.34;100.00;95004.56;5132439;28;20521;-61
2022/06/21 00:31:37;;;;;;;5.90;0.43;;;;;;;17.78;100.00;95006.56;5134517;27;20499;-61
2022/06/21 00:34:15;;;;;;;0.47;0.37;;;;;;;17.47;100.00;94975.75;5136342;27;20477;-61
2022/06/21 00:36:45;;;;;;;0.40;0.40;;;;;;;17.19;100.00;94953.94;5136673;27;20453;-61
2022/06/21 00:39:15;;;;;;;0.40;0.30;;;;;;;18.11;100.00;95006.75;5136533;27;20509;-61
2022/06/21 00:41:54;;;;;;;0.77;0.77;;;;;;;18.24;100.00;94978.88;5136378;27;20446;-61
2022/06/21 00:44:31;;;;;;;0.40;0.30;;;;;;;18.67;100.00;95004.69;5136205;27;20753;-61
2022/06/21 00:47:03;;;;;;;0.50;0.40;;;;;;;18.75;100.00;94993.06;5136186;27;20568;-61
2022/06/21 00:49:36;;;;;;;0.80;0.80;;;;;;;18.61;100.00;94990.66;5135990;27;20415;-61
2022/06/21 00:52:14;;;;;;;0.40;0.27;;;;;;;18.40;100.00;94955.75;5136243;27;20426;-60
2022/06/21 00:54:51;;;;;;;0.47;0.33;;;;;;;18.84;100.00;95002.66;5135864;27;20453;-61
2022/06/21 00:57:22;;;;;;;0.40;0.30;;;;;;;18.93;100.00;95005.25;5136091;27;20495;-61
2022/06/21 00:59:53;;;;;;;0.40;0.20;;;;;;;18.37;100.00;94934.91;5135878;27;20931;-61
2022/06/21 01:02:28;;;;;;;0.60;0.60;;;;;;;18.08;100.00;94980.56;5135977;27;20467;-60
2022/06/21 01:04:59;;;;;;;0.60;0.40;;;;;;;16.39;100.00;94829.66;5135921;27;20426;-60
2022/06/21 01:07:27;;;;;;;0.40;0.30;;;;;;;17.19;100.00;94947.78;5135421;27;21071;-61
2022/06/21 01:10:03;;;;;;;2.43;1.77;;;;;;;18.13;100.00;95011.78;5135686;27;20466;-61
2022/06/21 01:12:38;;;;;;;0.50;0.30;;;;;;;18.09;100.00;95008.94;5135700;27;20450;-60
2022/06/21 01:15:12;;;;;;;0.50;0.50;;;;;;;17.66;100.00;94957.41;5135597;27;20434;-60
2022/06/21 01:17:41;;;;;;;0.40;0.30;;;;;;;17.91;100.00;95012.06;5135413;27;20479;-60
2022/06/21 01:20:13;;;;;;;0.50;0.37;;;;;;;17.53;100.00;95012.78;5135530;27;20934;-60
2022/06/21 01:22:50;;;;;;;0.50;0.30;;;;;;;17.69;100.00;94994.31;5134341;27;20448;-60
2022/06/21 01:25:35;;;;;;;0.50;0.40;;;;;;;17.49;100.00;94957.47;5135186;27;20466;-60
2022/06/21 01:28:05;;;;;;;0.40;0.30;;;;;;;18.05;100.00;94991.94;5134288;27;20534;-60
2022/06/21 01:30:34;;;;;;;0.50;0.30;;;;;;;17.69;100.00;95005.81;5135109;27;20994;-60
2022/06/21 01:33:03;;;;;;;0.40;0.40;;;;;;;17.73;100.00;95001.38;5135074;27;20472;-60
2022/06/21 01:35:37;;;;;;;0.70;0.70;;;;;;;17.90;100.00;94999.75;5134909;27;20470;-60
2022/06/21 01:38:08;;;;;;;0.40;0.30;;;;;;;18.02;100.00;94991.78;5135348;27;20457;-60
2022/06/21 01:40:46;;;;;;;0.40;0.20;;;;;;;17.89;100.00;94988.22;5134952;27;20465;-60
2022/06/21 01:43:21;;;;;;;0.40;0.27;;;;;;;17.90;100.00;94994.38;5134716;27;20902;-60
2022/06/21 01:45:57;;;;;;;0.53;0.50;;;;;;;17.89;100.00;94976.69;5134673;27;20426;-60
2022/06/21 01:48:29;;;;;;;0.40;0.30;;;;;;;17.42;100.00;94901.72;5134610;27;20519;-60
2022/06/21 01:51:02;;;;;;;0.70;0.70;;;;;;;17.92;100.00;94973.38;5134782;27;21111;-60
2022/06/21 01:53:32;;;;;;;0.40;0.30;;;;;;;17.46;100.00;94899.94;5134568;27;20777;-59
2022/06/21 01:56:07;;;;;;;0.40;0.30;;;;;;;17.69;100.00;94959.47;5134498;27;20517;-60
2022/06/21 01:58:59;;;;;;;0.67;0.67;;;;;;;17.58;100.00;94934.91;5133745;27;20506;-60
2022/06/21 02:01:34;;;;;;;0.47;0.27;;;;;;;17.78;100.00;94974.38;5134731;27;20493;-59
2022/06/21 02:04:06;;;;;;;0.50;0.30;;;;;;;17.56;100.00;94933.66;5134420;27;20426;-59
2022/06/21 02:06:40;;;;;;;7.40;0.50;;;;;;;17.83;100.00;94994.09;5134519;27;20427;-60
2022/06/21 02:09:15;;;;;;;0.63;0.43;;;;;;;17.80;100.00;95005.47;5135039;27;20423;-59
2022/06/21 02:11:48;;;;;;;0.40;0.30;;;;;;;17.74;100.00;95004.84;5135031;27;20453;-59
2022/06/21 02:14:30;;;;;;;0.50;0.40;;;;;;;17.32;100.00;95005.75;5134233;27;20474;-59
2022/06/21 02:17:06;;;;;;;0.40;0.30;;;;;;;17.24;100.00;95012.69;5133708;27;20438;-59
2022/06/21 02:19:42;;;;;;;0.40;0.30;;;;;;;17.30;100.00;95040.88;5134516;27;20446;-60
2022/06/21 02:22:16;;;;;;;0.40;0.27;;;;;;;17.28;100.00;95010.16;5134042;27;20423;-59
2022/06/21 02:24:45;;;;;;;0.40;0.20;;;;;;;17.34;100.00;94982.88;5134336;27;20502;-59
2022/06/21 02:27:18;;;;;;;0.50;0.40;;;;;;;17.61;100.00;95019.22;5133969;27;20467;-60
2022/06/21 02:29:52;;;;;;;0.40;0.30;;;;;;;17.68;100.00;95004.22;5134149;27;20426;-59
2022/06/21 02:32:27;;;;;;;0.40;0.30;;;;;;;17.75;100.00;95014.47;5133958;27;20975;-60
2022/06/21 02:35:04;;;;;;;0.53;0.30;;;;;;;17.75;100.00;95009.09;5133509;27;21006;-59
2022/06/21 02:37:34;;;;;;;0.40;0.27;;;;;;;17.75;100.00;95009.91;5134088;27;20513;-59
2022/06/21 02:40:07;;;;;;;0.50;0.40;;;;;;;17.58;100.00;94991.19;5133978;27;20430;-59
2022/06/21 02:42:40;;;;;;;0.40;0.30;;;;;;;17.68;100.00;95019.53;5133978;27;20953;-59
2022/06/21 02:45:22;;;;;;;0.40;0.30;;;;;;;17.56;100.00;95011.38;5133585;27;20615;-60
2022/06/21 02:48:01;;;;;;;0.40;0.30;;;;;;;17.71;100.00;95018.88;5133895;27;20545;-59
2022/06/21 02:50:37;;;;;;;0.40;0.30;;;;;;;17.70;100.00;95017.31;5133669;27;20466;-59
2022/06/21 02:53:13;;;;;;;0.50;0.40;;;;;;;17.57;100.00;95004.91;5133364;27;20479;-59
2022/06/21 02:55:46;;;;;;;0.53;0.33;;;;;;;17.65;100.00;95018.28;5133767;27;20465;-59
2022/06/21 02:58:21;;;;;;;0.40;0.30;;;;;;;17.08;100.00;94988.28;5133559;27;20472;-59
2022/06/21 03:00:52;;;;;;;0.60;0.53;;;;;;;17.38;100.00;95021.31;5133462;27;20502;-59
2022/06/21 03:03:24;;;;;;;0.70;0.50;;;;;;;17.37;100.00;94992.97;5133314;27;20469;-59
2022/06/21 03:05:58;;;;;;;0.50;0.40;;;;;;;16.70;100.00;94907.09;5133569;27;20427;-59
2022/06/21 03:08:30;;;;;;;0.40;0.37;;;;;;;17.27;100.00;95014.72;5133584;27;20485;-59
2022/06/21 03:11:00;;;;;;;0.50;0.40;;;;;;;16.68;100.00;95004.84;5133384;27;20533;-58
2022/06/21 03:13:33;;;;;;;0.83;0.30;;;;;;;16.54;100.00;94950.72;5133140;27;20998;-58
2022/06/21 03:16:08;;;;;;;0.40;0.20;;;;;;;17.34;100.00;95009.66;5133315;27;20426;-58
2022/06/21 03:18:41;;;;;;;0.70;0.70;;;;;;;17.46;100.00;95009.00;5133013;27;20421;-58
2022/06/21 03:21:13;;;;;;;1.33;0.47;;;;;;;17.46;100.00;95004.44;5132923;27;20513;-59
2022/06/21 03:23:44;;;;;;;0.80;0.80;;;;;;;17.25;100.00;95006.22;5132906;27;21019;-58
2022/06/21 03:26:15;;;;;;;0.60;0.40;;;;;;;16.76;100.00;95015.56;5133085;27;20813;-57
2022/06/21 03:28:45;;;;;;;0.70;0.47;;;;;;;16.90;100.00;95015.41;5132767;27;20497;-58
2022/06/21 03:31:19;;;;;;;0.50;0.50;;;;;;;16.62;100.00;95004.22;5133125;27;20531;-58
2022/06/21 03:33:52;;;;;;;0.50;0.40;;;;;;;16.62;100.00;94996.19;5132817;27;20422;-58
2022/06/21 03:36:22;;;;;;;0.50;0.40;;;;;;;17.04;100.00;95000.75;5132989;27;20466;-58
2022/06/21 03:38:56;;;;;;;0.50;0.40;;;;;;;16.82;100.00;94971.50;5132843;27;20949;-58
2022/06/21 03:41:43;;;;;;;0.50;0.40;;;;;;;16.60;100.00;95019.00;5132934;27;20454;-58
2022/06/21 03:44:21;;;;;;;0.40;0.30;;;;;;;16.73;100.00;95012.72;5132426;27;20505;-58
2022/06/21 03:46:55;;;;;;;0.47;0.30;;;;;;;16.98;100.00;94985.16;5132081;28;20445;-58
2022/06/21 03:49:31;;;;;;;0.50;0.40;;;;;;;15.88;100.00;94813.69;5132586;28;20561;-58
2022/06/21 03:52:04;;;;;;;0.50;0.30;;;;;;;16.92;100.00;94984.56;5132839;28;20590;-58
2022/06/21 03:54:39;;;;;;;0.50;0.47;;;;;;;16.69;100.00;94990.38;5132569;28;20836;-58
2022/06/21 03:57:14;;;;;;;0.40;0.30;;;;;;;16.75;100.00;94997.13;5132544;27;20922;-58
2022/06/21 03:59:49;;;;;;;0.40;0.20;;;;;;;16.05;100.00;94885.06;5132569;27;20915;-58
2022/06/21 04:02:27;;;;;;;0.50;0.40;;;;;;;16.82;100.00;94970.69;5132843;28;20509;-58
2022/06/21 04:05:01;;;;;;;0.40;0.30;;;;;;;17.17;100.00;95004.34;5132531;27;20414;-59
2022/06/21 04:07:34;;;;;;;0.40;0.27;;;;;;;16.87;100.00;94917.00;5136540;27;20522;-59
2022/06/21 04:10:08;;;;;;;0.77;0.40;;;;;;;17.38;100.00;94997.19;5136624;27;21039;-59
2022/06/21 04:12:42;;;;;;;0.40;0.30;;;;;;;17.42;100.00;95000.84;5136633;27;20494;-58
2022/06/21 04:15:19;;;;;;;0.50;0.50;;;;;;;15.93;100.00;94799.38;5136626;27;20913;-59
2022/06/21 04:17:57;;;;;;;0.40;0.30;;;;;;;17.58;100.00;95003.81;5136636;27;20422;-59
2022/06/21 04:20:35;;;;;;;0.40;0.30;;;;;;;17.19;100.00;94937.06;5137856;27;20491;-58
2022/06/21 04:23:11;;;;;;;0.40;0.30;;;;;;;17.61;100.00;94995.13;5137937;27;20442;-59
2022/06/21 04:25:48;;;;;;;0.43;0.30;;;;;;;16.84;100.00;94811.34;5136455;27;20440;-59
2022/06/21 04:28:21;;;;;;;0.57;0.30;;;;;;;18.08;100.00;94993.19;5136075;27;20583;-59
2022/06/21 04:31:01;;;;;;;0.50;0.40;;;;;;;18.10;100.00;94996.31;5136667;27;20457;-59
2022/06/21 04:33:34;;;;;;;0.50;0.30;;;;;;;17.99;100.00;94974.44;5136113;27;20430;-59
2022/06/21 04:36:09;;;;;;;0.40;0.40;;;;;;;18.12;100.00;94992.22;5136035;27;20426;-59
2022/06/21 04:38:42;;;;;;;0.40;0.20;;;;;;;18.37;100.00;94988.59;5136193;27;20865;-59
2022/06/21 04:41:18;;;;;;;3.43;1.03;;;;;;;18.38;100.00;94962.53;5136131;27;20472;-59
2022/06/21 04:43:53;;;;;;;0.40;0.37;;;;;;;18.47;100.00;94943.75;5136087;27;21294;-59
2022/06/21 04:46:43;;;;;;;0.40;0.20;;;;;;;18.81;100.00;94979.13;5136113;27;20506;-60
2022/06/21 04:49:18;;;;;;;0.50;0.43;;;;;;;18.40;100.00;94893.22;5135822;27;20461;-61
2022/06/21 04:51:50;;;;;;;0.40;0.20;;;;;;;18.92;100.00;94980.28;5135603;27;20465;-61
2022/06/21 04:54:24;;;;;;;0.50;0.30;;;;;;;19.10;100.00;94982.84;5135627;27;20934;-55
2022/06/21 04:57:02;;;;;;;1.37;0.30;;;;;;;19.35;100.00;94990.66;5135628;27;20430;-55
2022/06/21 04:59:35;;;;;;;0.50;0.40;;;;;;;18.17;100.00;94800.78;5135426;27;20513;-56
2022/06/21 05:02:06;;;;;;;0.40;0.30;;;;;;;19.56;100.00;94991.38;5135584;27;20993;-56
2022/06/21 05:04:56;;;;;;;0.40;0.40;;;;;;;19.74;100.00;94991.97;5135600;27;20468;-57
2022/06/21 05:07:29;;;;;;;0.50;0.30;;;;;;;20.04;100.00;94998.72;5135074;27;20491;-57
2022/06/21 05:09:58;;;;;;;0.83;0.33;;;;;;;19.90;100.00;94995.59;5135502;27;20566;-57
2022/06/21 05:12:31;;;;;;;0.50;0.30;;;;;;;20.11;100.00;94992.78;5135485;27;20900;-57
2022/06/21 05:15:13;;;;;;;0.43;0.37;;;;;;;20.30;100.00;95008.38;5135678;27;20491;-57
2022/06/21 05:17:44;;;;;;;0.80;0.80;;;;;;;20.52;100.00;95010.59;5134883;27;20946;-58
2022/06/21 05:20:19;;;;;;;0.60;0.30;;;;;;;20.86;100.00;95010.88;5135208;27;20431;-58
2022/06/21 05:22:49;;;;;;;0.57;0.50;;;;;;;20.87;100.00;95008.97;5135586;27;20430;-58
2022/06/21 05:25:23;;;;;;;0.40;0.40;;;;;;;20.09;100.00;94939.31;5135268;27;20469;-59
2022/06/21 05:27:57;;;;;;;0.57;0.33;;;;;;;20.98;100.00;95015.44;5135108;27;20526;-59
2022/06/21 05:30:40;;;;;;;0.93;0.70;;;;;;;20.47;100.00;95008.94;5134999;27;21063;-59
2022/06/21 05:33:16;;;;;;;0.60;0.43;;;;;;;21.09;100.00;94996.91;5135075;27;20434;-57
2022/06/21 05:35:46;;;;;;;0.60;0.60;;;;;;;21.06;100.00;94997.59;5135490;27;20477;-57
2022/06/21 05:38:19;;;;;;;0.63;0.50;;;;;;;20.91;100.00;94996.38;5134986;27;20454;-56
2022/06/21 05:40:53;;;;;;;0.57;0.47;;;;;;;21.20;99.73;94996.06;5134461;27;21012;-56
2022/06/21 05:43:28;;;;;;;0.40;0.30;;;;;;;20.59;100.00;94938.13;5135047;27;20498;-56
2022/06/21 05:46:01;;;;;;;0.40;0.30;;;;;;;21.05;100.00;94985.22;5134821;27;20465;-56
2022/06/21 05:48:32;;;;;;;0.63;0.43;;;;;;;21.56;100.00;94984.31;5135008;27;20430;-56
2022/06/21 05:51:05;;;;;;;0.50;0.40;;;;;;;21.75;95.53;94975.56;5135036;27;20814;-56
2022/06/21 05:53:36;;;;;;;0.80;0.60;;;;;;;21.20;97.22;94982.59;5133715;27;20430;-55
2022/06/21 05:56:08;;;;;;;0.60;0.40;;;;;;;21.12;98.37;94964.69;5134540;27;20434;-56
2022/06/21 05:58:42;;;;;;;0.50;0.30;;;;;;;21.45;98.24;94965.16;5134549;27;20463;-56
2022/06/21 06:01:15;;;;;;;0.60;0.60;;;;;;;21.03;98.34;94904.72;5134809;27;20509;-55
2022/06/21 06:03:49;;;;;;;0.60;0.60;;;;;;;21.26;98.35;94967.75;5134280;27;20439;-55
2022/06/21 06:06:25;;;;;;;0.50;0.40;;;;;;;21.62;98.99;94960.56;5133740;27;20434;-55
2022/06/21 06:08:59;;;;;;;0.50;0.40;;;;;;;20.65;94.93;94818.25;5133495;27;20473;-55
2022/06/21 06:11:57;;;;;;;8.37;0.40;;;;;;;21.57;94.74;94963.53;5133416;27;20419;-55
2022/06/21 06:14:23;;;;;;;0.77;0.50;;;;;;;21.42;96.97;94968.56;5134240;27;20513;-55
2022/06/21 06:16:56;;;;;;;6.13;1.53;;;;;;;20.99;100.00;94878.81;5134383;27;20427;-57
2022/06/21 06:19:31;;;;;;;1.57;1.47;;;;;;;21.52;99.54;94986.16;5134466;27;20431;-55
2022/06/21 06:22:15;;;;;;;0.70;0.70;;;;;;;21.19;100.00;94970.25;5133744;27;20456;-55
2022/06/21 06:24:50;;;;;;;0.73;0.73;;;;;;;20.86;100.00;94945.44;5134010;27;20487;-57
2022/06/21 06:27:27;;;;;;;0.50;0.43;;;;;;;21.19;99.23;94974.84;5134240;27;20501;-55
2022/06/21 06:30:01;;;;;;;0.73;0.60;;;;;;;22.04;92.85;94940.03;5133158;27;20549;-56
2022/06/21 06:32:33;;;;;;;0.50;0.40;;;;;;;22.87;91.88;94977.41;5134214;27;20419;-56
2022/06/21 06:35:02;;;;;;;0.90;0.57;;;;;;;22.74;84.58;94974.03;5133620;27;20470;-56
2022/06/21 06:37:37;;;;;;;0.50;0.43;;;;;;;23.23;84.69;94971.56;5133815;27;20860;-57
2022/06/21 06:40:15;;;;;;;0.60;0.50;;;;;;;22.95;81.78;94983.72;5133648;27;20499;-56
2022/06/21 06:42:45;;;;;;;0.40;0.30;;;;;;;22.81;84.48;94980.75;5133746;27;20469;-57
2022/06/21 06:45:16;;;;;;;0.70;0.70;;;;;;;22.63;82.18;94978.47;5133399;27;20557;-57
2022/06/21 06:47:48;;;;;;;0.83;0.83;;;;;;;22.75;85.83;94959.41;5133357;27;20461;-57
2022/06/21 06:50:23;;;;;;;0.47;0.30;;;;;;;23.33;82.17;94971.00;5133474;27;20508;-56
2022/06/21 06:52:58;;;;;;;0.60;0.50;;;;;;;23.45;81.05;94967.38;5133483;27;20506;-56
2022/06/21 06:55:34;;;;;;;1.00;0.50;;;;;;;23.40;76.88;94977.72;5133394;27;20505;-56
2022/06/21 06:58:28;;;;;;;0.77;0.77;;;;;;;23.38;74.43;94905.81;5132960;27;20422;-56
2022/06/21 07:01:02;;;;;;;0.40;0.33;;;;;;;23.68;74.50;94972.81;5133278;27;20475;-56
2022/06/21 07:03:33;;;;;;;0.60;0.50;;;;;;;22.83;68.61;94652.28;5133218;27;20973;-56
2022/06/21 07:06:07;;;;;;;0.57;0.43;;;;;;;24.91;70.04;94925.94;5133131;27;20505;-55
2022/06/21 07:08:44;;;;;;;0.40;0.37;;;;;;;24.29;68.76;94969.94;5132421;27;20441;-55
2022/06/21 07:11:20;;;;;;;0.83;0.83;;;;;;;24.21;70.18;94938.50;5132785;27;20461;-55
2022/06/21 07:13:51;;;;;;;0.50;0.40;;;;;;;24.88;68.24;94958.41;5133322;27;20453;-56
2022/06/21 07:16:23;;;;;;;0.50;0.40;;;;;;;24.99;66.52;94915.97;5132851;27;20510;-57
2022/06/21 07:18:57;;;;;;;0.50;0.30;;;;;;;25.68;64.19;94925.19;5132675;27;20442;-57
2022/06/21 07:21:26;;;;;;;0.40;0.30;;;;;;;25.95;62.13;94899.47;5132943;27;20991;-58
2022/06/21 07:23:59;;;;;;;0.70;0.40;;;;;;;26.54;64.92;94939.06;5133408;27;20521;-58
2022/06/21 07:26:33;;;;;;;0.40;0.30;;;;;;;26.85;61.82;94938.50;5132866;27;20967;-59
2022/06/21 07:29:09;;;;;;;0.80;0.47;;;;;;;27.16;56.25;94933.56;5133375;27;20449;-59
2022/06/21 07:31:42;;;;;;;0.40;0.37;;;;;;;27.55;55.81;94921.63;5132641;27;20458;-59
2022/06/21 07:34:15;;;;;;;1.07;0.93;;;;;;;27.45;54.32;94930.56;5132605;27;20422;-59
2022/06/21 07:36:50;;;;;;;62.60;17.03;;;;;;;27.48;53.93;94880.00;5132846;27;20897;-59
2022/06/21 07:39:27;;;;;;;2.87;1.90;;;;;;;27.22;52.01;94875.69;5132232;27;20479;-58
2022/06/21 07:42:01;;;;;;;1.50;1.40;;;;;;;28.21;52.47;94922.84;5132731;27;20918;-58
2022/06/21 07:44:34;;;;;;;9.47;3.50;;;;;;;28.48;51.72;94925.94;5132545;27;20865;-58
2022/06/21 07:47:10;;;;;;;34.13;1.67;;;;;;;27.21;55.57;94784.31;5133009;28;20885;-57
2022/06/21 07:49:41;;;;;;;2.77;0.97;;;;;;;27.69;53.06;94918.16;5132833;28;20461;-57
2022/06/21 07:52:15;;;;;;;3.23;1.63;;;;;;;27.09;53.12;94885.38;5132845;27;20958;-57
2022/06/21 07:55:14;;;;;;;3.93;2.13;;;;;;;27.76;51.40;94884.69;5132416;28;20473;-57
2022/06/21 07:58:02;;;;;;;1.33;1.23;;;;;;;28.94;49.25;94918.41;5132528;28;20450;-57
2022/06/21 08:06:46;;;;;;;0.40;0.30;;;;;;;29.32;46.50;94927.63;5132587;28;20461;-57
2022/06/21 08:09:28;;;;;;;0.60;0.50;;;;;;;29.11;45.18;94889.53;5132349;28;20901;-56
2022/06/21 08:12:00;;;;;;;0.40;0.37;;;;;;;28.66;46.12;94925.94;5132706;28;20887;-56
2022/06/21 08:14:31;;;;;;;0.70;0.70;;;;;;;28.37;47.32;94930.63;5132295;27;20418;-56
2022/06/21 08:17:07;;;;;;;0.60;0.60;;;;;;;28.99;50.21;94928.19;5132332;28;20517;-56
2022/06/21 08:19:44;;;;;;;0.40;0.30;;;;;;;29.24;47.38;94841.53;5132724;28;20494;-56
2022/06/21 08:22:19;;;;;;;0.50;0.50;;;;;;;29.81;47.48;94920.34;5132461;27;20477;-57
2022/06/21 08:24:54;;;;;;;0.60;0.50;;;;;;;29.88;46.92;94934.72;5132419;27;20945;-56
2022/06/21 08:27:32;;;;;;;0.47;0.30;;;;;;;29.42;48.28;94917.84;5132657;28;20508;-56
2022/06/21 08:30:07;;;;;;;0.50;0.40;;;;;;;28.97;45.50;94785.13;5132317;27;20553;-56
2022/06/21 08:32:42;;;;;;;0.80;0.67;;;;;;;29.96;46.20;94936.25;5131789;28;20816;-56
2022/06/21 08:35:17;;;;;;;3.03;0.93;;;;;;;29.99;44.04;94929.19;5132231;28;20461;-56
2022/06/21 08:37:52;;;;;;;1.13;1.03;;;;;;;30.41;42.89;94926.09;5132593;28;20448;-56
2022/06/21 08:40:50;;;;;;;4.00;1.90;;;;;;;30.11;43.64;94899.41;5132304;28;20437;-56
2022/06/21 08:44:13;;;;;;;3.17;1.70;;;;;;;30.51;41.92;94925.22;5131361;28;20466;-57
2022/06/21 08:47:21;;;;;;;2.20;1.53;;;;;;;31.43;39.68;94919.47;5048720;28;20488;-56
2022/06/21 08:50:39;;;;;;;2.97;1.00;;;;;;;31.49;41.39;94919.06;5048536;28;20446;-56
2022/06/21 08:53:19;;;;;;;1.90;0.73;;;;;;;31.21;39.32;94928.41;5134423;27;20938;-56
2022/06/21 08:55:56;;;;;;;0.93;0.93;;;;;;;30.90;38.93;94918.56;5136259;27;20541;-55
2022/06/21 08:58:43;;;;;;;0.50;0.50;;;;;;;32.00;38.56;94921.47;5135720;27;20430;-56
2022/06/21 09:01:23;;;;;;;1.07;0.70;;;;;;;32.68;36.97;94913.63;5135829;27;20459;-54
2022/06/21 09:04:13;;;;;;;0.40;0.40;;;;;;;32.30;38.47;94913.13;5135762;27;20426;-55
2022/06/21 09:06:54;;;;;;;0.60;0.40;;;;;;;32.39;40.13;94901.59;5135437;27;20551;-54
2022/06/21 09:09:48;;;;;;;1.03;0.77;;;;;;;32.33;40.40;94906.81;5135818;27;20509;-55
2022/06/21 09:12:27;;;;;;;0.80;0.47;;;;;;;32.98;37.58;94896.97;5135723;27;20581;-55
2022/06/21 09:15:16;;;;;;;0.40;0.30;;;;;;;32.49;36.24;94895.91;5135483;27;20423;-55
2022/06/21 09:17:53;;;;;;;0.60;0.60;;;;;;;32.59;36.04;94899.69;5135845;27;20462;-55
2022/06/21 09:20:33;;;;;;;0.90;0.60;;;;;;;33.34;32.81;94899.78;5135510;27;20983;-55
2022/06/21 09:23:31;;;;;;;0.50;0.40;;;;;;;33.45;34.07;94897.56;5135510;27;20440;-55
2022/06/21 09:26:07;;;;;;;0.40;0.30;;;;;;;34.10;31.85;94894.94;5135424;27;20566;-55
2022/06/21 09:28:41;;;;;;;0.40;0.40;;;;;;;33.29;31.49;94885.78;5135294;27;20507;-55
2022/06/21 09:31:17;;;;;;;0.40;0.30;;;;;;;33.80;32.20;94872.03;5135359;27;20555;-55
2022/06/21 09:33:50;;;;;;;0.40;0.30;;;;;;;33.97;30.95;94877.56;5134936;27;20428;-55
2022/06/21 09:36:28;;;;;;;0.43;0.40;;;;;;;33.51;30.99;94868.38;5135424;27;20429;-55
2022/06/21 09:39:09;;;;;;;0.40;0.40;;;;;;;33.72;31.45;94864.41;5135347;27;20449;-55
2022/06/21 09:41:49;;;;;;;0.60;0.50;;;;;;;33.82;32.07;94836.66;5135518;27;20536;-55
2022/06/21 09:44:25;;;;;;;0.40;0.30;;;;;;;34.49;31.35;94864.44;5134831;27;20530;-55
2022/06/21 09:47:04;;;;;;;6.10;0.50;;;;;;;34.22;31.85;94856.50;5134665;27;21010;-55
2022/06/21 09:49:45;;;;;;;0.50;0.50;;;;;;;34.45;30.91;94852.75;5135153;27;20437;-55
2022/06/21 09:52:30;;;;;;;0.40;0.30;;;;;;;34.62;30.32;94854.28;5134833;27;20461;-56
2022/06/21 09:55:13;;;;;;;0.43;0.30;;;;;;;34.37;31.52;94846.69;5134687;27;20929;-56
2022/06/21 09:57:52;;;;;;;0.40;0.40;;;;;;;34.87;32.17;94845.31;5134228;27;20742;-56
2022/06/21 10:00:27;;;;;;;0.60;0.47;;;;;;;34.74;32.46;94815.00;5134559;27;20464;-55
2022/06/21 10:03:12;;;;;;;0.40;0.30;;;;;;;34.44;32.77;94849.22;5135009;27;20851;-56
2022/06/21 10:05:48;;;;;;;0.50;0.40;;;;;;;34.46;33.34;94829.53;5134871;27;20432;-56
2022/06/21 10:08:26;;;;;;;0.37;0.30;;;;;;;35.56;31.83;94844.50;5134436;27;20465;-56
2022/06/21 10:11:04;;;;;;;0.40;0.30;;;;;;;35.94;31.62;94818.84;5134481;27;20912;-56
2022/06/21 10:13:51;;;;;;;0.50;0.33;;;;;;;35.35;32.36;94836.06;5134329;27;20475;-54
2022/06/21 10:16:39;;;;;;;2.20;0.40;;;;;;;35.92;33.33;94822.06;5134608;27;20434;-56
2022/06/21 10:19:25;;;;;;;0.40;0.40;;;;;;;35.90;32.66;94824.47;5134249;27;20472;-58
2022/06/21 10:22:18;;;;;;;0.50;0.30;;;;;;;35.09;34.37;94824.28;5134197;27;20473;-58
2022/06/21 10:25:11;;;;;;;0.40;0.33;;;;;;;35.44;33.49;94817.69;5134599;27;20470;-58
2022/06/21 10:28:05;;;;;;;0.40;0.30;;;;;;;36.04;31.93;94815.00;5133691;27;20428;-58
2022/06/21 10:30:52;;;;;;;0.40;0.30;;;;;;;36.81;31.50;94809.50;5134344;27;20456;-58
2022/06/21 10:33:52;;;;;;;0.30;0.30;;;;;;;36.28;33.53;94816.16;5133825;27;20436;-57
2022/06/21 10:36:39;;;;;;;0.30;0.30;;;;;;;36.78;31.28;94809.66;5133869;27;20247;-56
2022/06/21 10:39:39;;;;;;;0.30;0.20;;;;;;;37.01;32.11;94800.16;5134036;27;20619;-56
2022/06/21 10:45:20;;;;;;;0.50;0.40;;;;;;;37.10;31.71;94789.16;5133363;27;20769;-56
2022/06/21 10:48:19;;;;;;;0.67;0.67;;;;;;;35.56;33.64;94788.59;5134080;27;20187;-56
2022/06/21 10:50:58;;;;;;;0.40;0.40;;;;;;;36.57;32.98;94783.59;5133900;27;20292;-57
2022/06/21 10:53:52;;;;;;;0.30;0.30;;;;;;;36.49;32.97;94779.53;5133036;27;20218;-56
2022/06/21 11:01:16;;;;;;;0.50;0.50;;;;;;;35.64;34.71;94778.88;5133396;27;20676;-57
2022/06/21 11:02:37;;;;;;;0.50;0.40;;;;;;;36.18;34.07;94787.69;5133289;27;20196;-56
2022/06/21 11:05:15;;;;;;;0.43;0.40;;;;;;;36.72;35.90;94784.59;5133219;27;20593;-56
2022/06/21 11:07:50;;;;;;;0.40;0.30;;;;;;;36.92;35.11;94778.75;5133132;27;20219;-56
2022/06/21 11:10:25;;;;;;;0.43;0.37;;;;;;;36.62;34.89;94776.72;5133261;27;20222;-56
2022/06/21 11:13:04;;;;;;;3.03;0.40;;;;;;;35.56;35.68;94783.84;5133178;27;20290;-56
2022/06/21 11:15:50;;;;;;;0.30;0.30;;;;;;;35.57;36.29;94785.38;5133136;27;20188;-56
2022/06/21 11:18:29;;;;;;;0.40;0.40;;;;;;;35.58;35.96;94684.16;5133515;27;20211;-56
2022/06/21 11:21:06;;;;;;;0.30;0.20;;;;;;;37.53;34.20;94778.75;5133261;27;20184;-56
2022/06/21 11:23:46;;;;;;;0.67;0.40;;;;;;;37.25;34.23;94770.78;5133269;27;20192;-57
2022/06/21 11:26:29;;;;;;;0.30;0.30;;;;;;;36.52;34.97;94747.50;5133353;27;20192;-56
2022/06/21 11:29:21;;;;;;;1.00;1.00;;;;;;;36.80;34.52;94763.03;5132828;27;20195;-56
2022/06/21 11:31:59;;;;;;;0.60;0.50;;;;;;;36.04;34.22;94768.09;5133463;27;20637;-56
2022/06/21 11:34:40;;;;;;;0.30;0.30;;;;;;;36.66;34.74;94763.56;5132893;27;20623;-56
2022/06/21 11:37:23;;;;;;;2.67;0.20;;;;;;;37.89;31.64;94755.97;5132707;27;20180;-56
2022/06/21 11:40:07;;;;;;;0.40;0.30;;;;;;;37.97;31.63;94759.22;5133037;27;20599;-56
2022/06/21 11:42:45;;;;;;;0.30;0.30;;;;;;;37.07;31.87;94754.91;5133048;27;20613;-57
2022/06/21 11:45:27;;;;;;;0.50;0.50;;;;;;;36.84;32.97;94749.84;5132692;27;20223;-57
2022/06/21 11:48:15;;;;;;;0.40;0.30;;;;;;;37.19;32.11;94756.03;5132751;28;20279;-57
2022/06/21 11:50:53;;;;;;;0.38;0.30;;;;;;;37.43;31.92;94749.56;5132693;28;20224;-57
2022/06/21 11:53:46;;;;;;;3.60;0.40;;;;;;;38.15;30.44;94748.16;5133012;28;20235;-57
2022/06/21 11:56:21;;;;;;;0.30;0.30;;;;;;;37.18;31.58;94749.75;5133202;28;20192;-57
2022/06/21 11:58:58;;;;;;;0.40;0.40;;;;;;;36.97;31.81;94749.78;5132982;28;20219;-57
2022/06/21 12:01:33;;;;;;;0.30;0.25;;;;;;;37.49;29.79;94697.97;5132732;28;20224;-57
2022/06/21 12:04:13;;;;;;;0.40;0.38;;;;;;;37.21;29.36;94692.78;5132698;28;20230;-57
2022/06/21 12:06:46;;;;;;;0.35;0.32;;;;;;;38.04;29.67;94734.00;5132991;28;20187;-57
2022/06/21 12:09:23;;;;;;;0.40;0.30;;;;;;;37.70;29.20;94735.00;5132260;27;20223;-57
2022/06/21 12:12:06;;;;;;;0.50;0.40;;;;;;;36.64;29.98;94722.56;5132398;28;20634;-57
2022/06/21 12:14:49;;;;;;;0.63;0.63;;;;;;;35.91;30.24;94720.44;5132456;28;20192;-57
2022/06/21 12:17:21;;;;;;;5.68;0.40;;;;;;;36.78;29.97;94716.53;5132745;28;20181;-57
2022/06/21 12:19:57;;;;;;;0.40;0.30;;;;;;;37.09;29.86;94701.97;5132827;27;20212;-58
2022/06/21 12:22:32;;;;;;;0.40;0.30;;;;;;;37.63;30.37;94712.41;5132481;28;20660;-58
2022/06/21 12:25:01;;;;;;;0.43;0.30;;;;;;;38.29;28.59;94711.56;5132496;28;20248;-59
2022/06/21 12:27:29;;;;;;;0.40;0.40;;;;;;;36.70;29.40;94692.38;5134376;27;20212;-59